Dades meteomassalio
Diari Summary for Agost 2, 2017 Units:  Metric    English   Both
« Previous Day
Next Day »
Diari Semanal Mensual Anual Personalitzat
  Maxima: Minima: Mijana:
Temperatura: 33.8 °C 20.1 °C 28 °C
Rosada: 21.2 °C 12.1 °C 17.1 °C
Humitat: 83 % 28 % 55 %
Velocitat del vent: 29.6 km/h 0.0 km/h 5 km/h
Racha vent: 29.6 km/h - -
Vent:- - South
Pressio: 1017.8 hPa 1013.8 hPa -
Pluja: 0.0 mm    
Historical Graphs
 
 
Tabular Data for Agost 2, 2017
Time Temperature Dew Point Pressure Wind Wind Speed Wind Gust Humidity Rainfall Rate (Hourly) solar Conditions
00:01 28.3 °C 15.9 °C 1015.5 hPa South 17.7 km/h 17.7 km/h 47 % 0.0 mm 0.0 W/m2 CLR
00:06 29.1 °C 15.9 °C 1015.5 hPa SSE 22.2 km/h 22.2 km/h 45 % 0.0 mm 0.0 W/m2 CLR
00:11 29.4 °C 16.2 °C 1015.5 hPa SSE 22.5 km/h 22.5 km/h 45 % 0.0 mm 0.0 W/m2 CLR
00:16 29.4 °C 16.2 °C 1015.5 hPa SSW 14.8 km/h 14.8 km/h 45 % 0.0 mm 0.0 W/m2 CLR
00:21 29.4 °C 16.2 °C 1015.5 hPa SSW 13.0 km/h 16.9 km/h 45 % 0.0 mm 0.0 W/m2 CLR
00:26 29.3 °C 16.5 °C 1015.5 hPa South 18.5 km/h 18.5 km/h 46 % 0.0 mm 0.0 W/m2 CLR
00:31 29.3 °C 16.4 °C 1015.8 hPa Calm     46 % 0.0 mm 0.0 W/m2 CLR
00:36 29.2 °C 16.7 °C 1015.8 hPa Calm     47 % 0.0 mm 0.0 W/m2 CLR
00:41 29.0 °C 16.9 °C 1015.8 hPa ESE 3.7 km/h 3.7 km/h 48 % 0.0 mm 0.0 W/m2 CLR
00:46 28.8 °C 17.0 °C 1015.8 hPa SE 3.7 km/h 3.7 km/h 49 % 0.0 mm 0.0 W/m2 CLR
00:51 28.6 °C 16.8 °C 1015.8 hPa Calm     49 % 0.0 mm 0.0 W/m2 CLR
00:56 28.4 °C 16.9 °C 1015.8 hPa Calm     50 % 0.0 mm 0.0 W/m2 CLR
01:01 28.3 °C 17.2 °C 1015.8 hPa Calm     51 % 0.0 mm 0.0 W/m2 CLR
01:06 28.3 °C 17.2 °C 1015.8 hPa Calm     51 % 0.0 mm 0.0 W/m2 CLR
01:11 28.2 °C 17.1 °C 1015.5 hPa Calm     51 % 0.0 mm 0.0 W/m2 CLR
01:16 28.2 °C 17.1 °C 1015.8 hPa Calm     51 % 0.0 mm 0.0 W/m2 CLR
01:21 28.2 °C 17.1 °C 1015.8 hPa Calm     51 % 0.0 mm 0.0 W/m2 CLR
01:26 28.2 °C 17.1 °C 1015.8 hPa Calm     51 % 0.0 mm 0.0 W/m2 CLR
01:31 28.2 °C 17.1 °C 1015.5 hPa Calm     51 % 0.0 mm 0.0 W/m2 CLR
01:36 28.3 °C 17.2 °C 1015.5 hPa Calm     51 % 0.0 mm 0.0 W/m2 CLR
01:41 28.1 °C 17.3 °C 1015.5 hPa NE 13.0 km/h 13.0 km/h 52 % 0.0 mm 0.0 W/m2 CLR
01:46 26.9 °C 17.1 °C 1015.5 hPa NNE 9.3 km/h 9.3 km/h 55 % 0.0 mm 0.0 W/m2 CLR
01:51 26.1 °C 17.4 °C 1015.8 hPa NE 5.6 km/h 5.6 km/h 59 % 0.0 mm 0.0 W/m2 CLR
01:56 25.7 °C 17.6 °C 1015.8 hPa Calm     61 % 0.0 mm 0.0 W/m2 CLR
02:01 25.3 °C 17.5 °C 1015.8 hPa Calm     62 % 0.0 mm 0.0 W/m2 CLR
02:06 25.0 °C 17.7 °C 1015.8 hPa Calm     64 % 0.0 mm 0.0 W/m2 CLR
02:11 24.8 °C 17.5 °C 1015.8 hPa Calm     64 % 0.0 mm 0.0 W/m2 CLR
02:16 24.7 °C 17.7 °C 1015.8 hPa Calm     65 % 0.0 mm 0.0 W/m2 CLR
02:21 24.5 °C 17.7 °C 1015.8 hPa Calm     66 % 0.0 mm 0.0 W/m2 CLR
02:26 24.3 °C 17.8 °C 1015.8 hPa NNE 9.3 km/h 9.3 km/h 67 % 0.0 mm 0.0 W/m2 CLR
02:31 24.3 °C 18.5 °C 1015.8 hPa Calm     70 % 0.0 mm 0.0 W/m2 CLR
02:36 24.3 °C 18.5 °C 1015.8 hPa Calm     70 % 0.0 mm 0.0 W/m2 CLR
02:41 24.2 °C 18.6 °C 1015.8 hPa Calm     71 % 0.0 mm 0.0 W/m2 CLR
02:46 24.1 °C 18.4 °C 1015.8 hPa Calm     71 % 0.0 mm 0.0 W/m2 CLR
02:51 23.9 °C 18.6 °C 1015.8 hPa Calm     72 % 0.0 mm 0.0 W/m2 CLR
02:56 23.8 °C 18.9 °C 1015.8 hPa Calm     74 % 0.0 mm 0.0 W/m2 CLR
03:02 23.7 °C 18.6 °C 1015.8 hPa Calm     73 % 0.0 mm 0.0 W/m2 CLR
03:07 23.5 °C 18.6 °C 1015.8 hPa Calm     74 % 0.0 mm 0.0 W/m2 CLR
03:12 23.4 °C 18.5 °C 1015.8 hPa Calm     74 % 0.0 mm 0.0 W/m2 CLR
03:17 23.2 °C 18.5 °C 1015.8 hPa Calm     75 % 0.0 mm 0.0 W/m2 CLR
03:22 23.1 °C 18.8 °C 1015.8 hPa Calm     77 % 0.0 mm 0.0 W/m2 CLR
03:27 22.8 °C 18.4 °C 1015.8 hPa Calm     76 % 0.0 mm 0.0 W/m2 CLR
03:32 22.7 °C 18.5 °C 1016.1 hPa Calm     77 % 0.0 mm 0.0 W/m2 CLR
03:37 22.6 °C 18.7 °C 1016.1 hPa Calm     79 % 0.0 mm 0.0 W/m2 CLR
03:42 22.5 °C 18.4 °C 1016.1 hPa Calm     78 % 0.0 mm 0.0 W/m2 CLR
03:43 22.5 °C 18.7 °C 1016.1 hPa Calm     79 % 0.0 mm 0.0 W/m2 CLR
03:48 22.3 °C 17.7 °C 1016.1 hPa Calm     75 % 0.0 mm 0.0 W/m2 CLR
03:53 22.3 °C 17.6 °C 1016.1 hPa Calm     75 % 0.0 mm 0.0 W/m2 CLR
03:58 22.2 °C 17.5 °C 1015.8 hPa Calm     75 % 0.0 mm 0.0 W/m2 CLR
04:03 22.1 °C 17.7 °C 1015.8 hPa Calm     76 % 0.0 mm 0.0 W/m2 CLR
04:08 21.9 °C 18.1 °C 1015.8 hPa Calm     79 % 0.0 mm 0.0 W/m2 CLR
04:13 22.0 °C 18.2 °C 1015.8 hPa Calm     79 % 0.0 mm 0.0 W/m2 CLR
04:18 21.9 °C 17.9 °C 1015.8 hPa Calm     78 % 0.0 mm 0.0 W/m2 CLR
04:23 21.8 °C 17.8 °C 1016.1 hPa Calm     78 % 0.0 mm 0.0 W/m2 CLR
04:28 21.8 °C 17.8 °C 1015.8 hPa Calm     78 % 0.0 mm 0.0 W/m2 CLR
04:33 21.7 °C 17.7 °C 1015.8 hPa Calm     78 % 0.0 mm 0.0 W/m2 CLR
04:38 21.6 °C 17.6 °C 1015.8 hPa Calm     78 % 0.0 mm 0.0 W/m2 CLR
04:43 21.4 °C 17.7 °C 1015.8 hPa Calm     79 % 0.0 mm 0.0 W/m2 CLR
04:48 21.3 °C 17.7 °C 1015.8 hPa Calm     80 % 0.0 mm 0.0 W/m2 CLR
04:53 21.3 °C 17.9 °C 1015.8 hPa Calm     81 % 0.0 mm 0.0 W/m2 CLR
04:58 21.2 °C 17.6 °C 1015.8 hPa Calm     80 % 0.0 mm 0.0 W/m2 CLR
05:03 21.2 °C 17.8 °C 1015.8 hPa Calm     81 % 0.0 mm 0.0 W/m2 CLR
05:08 21.2 °C 17.8 °C 1015.8 hPa Calm     81 % 0.0 mm 0.0 W/m2 CLR
05:09 21.2 °C 17.8 °C 1015.8 hPa Calm     81 % 0.0 mm 0.0 W/m2 CLR
05:14 21.2 °C 17.6 °C 1015.8 hPa Calm     80 % 0.0 mm 0.0 W/m2 CLR
05:19 21.1 °C 17.5 °C 1015.8 hPa Calm     80 % 0.0 mm 0.0 W/m2 CLR
05:24 21.0 °C 17.4 °C 1015.8 hPa Calm     80 % 0.0 mm 0.0 W/m2 CLR
05:29 20.9 °C 17.3 °C 1015.8 hPa Calm     80 % 0.0 mm 0.0 W/m2 CLR
05:34 20.8 °C 17.2 °C 1015.8 hPa Calm     80 % 0.0 mm 0.0 W/m2 CLR
05:39 20.7 °C 17.3 °C 1015.8 hPa Calm     81 % 0.0 mm 0.0 W/m2 CLR
05:44 20.6 °C 17.2 °C 1015.8 hPa Calm   1.4 km/h 81 % 0.0 mm 0.0 W/m2 CLR
05:49 20.6 °C 17.2 °C 1015.8 hPa Calm     81 % 0.0 mm 0.0 W/m2 CLR
05:54 20.6 °C 17.2 °C 1015.8 hPa Calm     81 % 0.0 mm 0.0 W/m2 CLR
05:59 20.6 °C 17.1 °C 1016.1 hPa Calm     80 % 0.0 mm 0.0 W/m2 CLR
06:04 20.5 °C 16.9 °C 1016.1 hPa Calm     80 % 0.0 mm 0.0 W/m2 CLR
06:09 20.3 °C 16.8 °C 1016.1 hPa Calm     80 % 0.0 mm 0.0 W/m2 CLR
06:14 20.2 °C 16.8 °C 1016.1 hPa Calm     81 % 0.0 mm 0.0 W/m2 CLR
06:19 20.1 °C 16.7 °C 1016.1 hPa Calm     81 % 0.0 mm 0.0 W/m2 CLR
06:24 20.1 °C 16.7 °C 1016.1 hPa SW 1.6 km/h   81 % 0.0 mm 0.0 W/m2 CLR
06:29 20.1 °C 16.5 °C 1016.1 hPa WSW 3.7 km/h 3.7 km/h 80 % 0.0 mm 0.0 W/m2 CLR
06:34 20.1 °C 16.5 °C 1016.1 hPa Calm     80 % 0.0 mm 0.0 W/m2 CLR
06:39 20.1 °C 16.5 °C 1016.5 hPa Calm     80 % 0.0 mm 0.0 W/m2 CLR
06:44 20.1 °C 16.6 °C 1016.5 hPa Calm     80 % 0.0 mm 0.0 W/m2 CLR
06:49 20.1 °C 16.6 °C 1016.5 hPa Calm     80 % 0.0 mm 0.0 W/m2 OVC
06:54 20.1 °C 16.7 °C 1016.5 hPa Calm     81 % 0.0 mm 0.0 W/m2 OVC
06:59 20.2 °C 16.6 °C 1016.5 hPa Calm     80 % 0.0 mm 5.0 W/m2 OVC
07:04 20.2 °C 16.8 °C 1016.8 hPa Calm     81 % 0.0 mm 7.0 W/m2 BKN
07:09 20.1 °C 16.6 °C 1016.8 hPa Calm     80 % 0.0 mm 11.0 W/m2 BKN
07:14 20.1 °C 16.9 °C 1017.2 hPa Calm     82 % 0.0 mm 16.0 W/m2 BKN
07:19 20.2 °C 17.2 °C 1017.2 hPa WSW 5.6 km/h 5.6 km/h 83 % 0.0 mm 21.0 W/m2 BKN
07:24 20.4 °C 17.2 °C 1017.2 hPa SW 1.9 km/h 1.9 km/h 82 % 0.0 mm 26.0 W/m2 BKN
07:29 20.4 °C 17.3 °C 1017.2 hPa Calm     82 % 0.0 mm 33.0 W/m2 BKN
07:34 20.6 °C 17.4 °C 1017.2 hPa Calm     82 % 0.0 mm 35.0 W/m2 BKN
07:39 20.6 °C 17.2 °C 1017.2 hPa Calm     81 % 0.0 mm 46.0 W/m2 SCT
07:44 20.8 °C 17.6 °C 1017.2 hPa SW 1.9 km/h 1.9 km/h 82 % 0.0 mm 51.0 W/m2 SCT
07:49 20.9 °C 17.8 °C 1017.5 hPa Calm     82 % 0.0 mm 58.0 W/m2 SCT
07:54 21.0 °C 17.6 °C 1017.5 hPa Calm     81 % 0.0 mm 67.0 W/m2 FEW
07:59 21.1 °C 17.7 °C 1017.5 hPa Calm     81 % 0.0 mm 74.0 W/m2 SCT
08:04 21.2 °C 17.8 °C 1017.5 hPa Calm     81 % 0.0 mm 81.0 W/m2 FEW
08:05 21.2 °C 17.8 °C 1017.5 hPa Calm     81 % 0.0 mm 83.0 W/m2 FEW
08:10 21.3 °C 17.9 °C 1017.5 hPa Calm     81 % 0.0 mm 95.0 W/m2 FEW
08:15 21.5 °C 18.1 °C 1017.5 hPa Calm     81 % 0.0 mm 102.0 W/m2 CLR
08:20 21.7 °C 18.3 °C 1017.5 hPa Calm     81 % 0.0 mm 104.0 W/m2 CLR
08:25 21.9 °C 18.6 °C 1017.5 hPa Calm     81 % 0.0 mm 156.0 W/m2 CLR
08:30 22.2 °C 18.6 °C 1017.5 hPa Calm     80 % 0.0 mm 114.0 W/m2 CLR
08:35 22.3 °C 18.5 °C 1017.2 hPa Calm     79 % 0.0 mm 120.0 W/m2 CLR
08:40 22.4 °C 18.8 °C 1017.2 hPa Calm     80 % 0.0 mm 142.0 W/m2 CLR
08:45 22.6 °C 18.8 °C 1017.2 hPa Calm     79 % 0.0 mm 257.0 W/m2 CLR
08:50 23.0 °C 18.9 °C 1017.2 hPa Calm     78 % 0.0 mm 320.0 W/m2 CLR
08:55 23.5 °C 19.0 °C 1016.8 hPa Calm     76 % 0.0 mm 188.0 W/m2 CLR
09:00 23.6 °C 18.9 °C 1016.8 hPa Calm     75 % 0.0 mm 171.0 W/m2 CLR
09:05 23.7 °C 18.9 °C 1016.8 hPa Calm     75 % 0.0 mm 183.0 W/m2 CLR
09:10 23.7 °C 18.9 °C 1016.8 hPa Calm     75 % 0.0 mm 220.0 W/m2 CLR
09:15 23.9 °C 19.2 °C 1016.8 hPa Calm     75 % 0.0 mm 216.0 W/m2 CLR
09:20 24.1 °C 19.2 °C 1017.2 hPa Calm     74 % 0.0 mm 188.0 W/m2 CLR
09:25 24.3 °C 19.3 °C 1017.2 hPa Calm     74 % 0.0 mm 290.0 W/m2 CLR
09:30 24.5 °C 19.3 °C 1017.2 hPa Calm     73 % 0.0 mm 253.0 W/m2 CLR
09:35 24.7 °C 19.6 °C 1017.2 hPa Calm     73 % 0.0 mm 251.0 W/m2 CLR
09:40 24.9 °C 19.6 °C 1017.2 hPa Calm     72 % 0.0 mm 476.0 W/m2 CLR
09:45 25.3 °C 19.7 °C 1017.5 hPa Calm     71 % 0.0 mm 320.0 W/m2 CLR
09:50 25.7 °C 19.6 °C 1017.5 hPa Calm     69 % 0.0 mm 345.0 W/m2 CLR
09:55 26.0 °C 19.6 °C 1017.5 hPa Calm     68 % 0.0 mm 517.0 W/m2 CLR
10:00 26.3 °C 19.7 °C 1017.2 hPa NNW 1.9 km/h   67 % 0.0 mm 531.0 W/m2 CLR
10:05 26.7 °C 20.1 °C 1017.2 hPa Calm     67 % 0.0 mm 540.0 W/m2 CLR
10:10 27.3 °C 19.9 °C 1017.2 hPa Calm     64 % 0.0 mm 545.0 W/m2 CLR
10:15 27.8 °C 20.2 °C 1017.2 hPa ENE 9.3 km/h 9.3 km/h 63 % 0.0 mm 550.0 W/m2 CLR
10:20 27.8 °C 20.2 °C 1017.2 hPa East 9.3 km/h 9.3 km/h 63 % 0.0 mm 613.0 W/m2 CLR
10:25 27.9 °C 19.7 °C 1016.8 hPa SE 8.0 km/h 8.0 km/h 61 % 0.0 mm 642.0 W/m2 CLR
10:30 28.2 °C 19.9 °C 1016.8 hPa Calm     61 % 0.0 mm 693.0 W/m2 CLR
10:31 28.2 °C 20.0 °C 1016.8 hPa Calm     61 % 0.0 mm 693.0 W/m2 CLR
10:36 28.4 °C 20.2 °C 1016.8 hPa SE 3.7 km/h 3.7 km/h 61 % 0.0 mm 473.0 W/m2 CLR
10:41 28.3 °C 20.1 °C 1016.8 hPa Calm     61 % 0.0 mm 536.0 W/m2 CLR
10:46 28.4 °C 20.2 °C 1016.1 hPa ENE 11.1 km/h 11.1 km/h 61 % 0.0 mm 288.0 W/m2 CLR
10:51 28.6 °C 20.6 °C 1016.5 hPa ESE 5.6 km/h 5.6 km/h 62 % 0.0 mm 622.0 W/m2 CLR
10:56 29.1 °C 20.8 °C 1016.5 hPa East 5.6 km/h 5.6 km/h 61 % 0.0 mm 422.0 W/m2 CLR
11:01 29.5 °C 20.9 °C 1016.1 hPa NE 5.6 km/h   60 % 0.0 mm 612.0 W/m2 CLR
11:06 29.9 °C 21.0 °C 1016.5 hPa ENE 9.3 km/h 9.3 km/h 59 % 0.0 mm 645.0 W/m2 CLR
11:11 30.4 °C 21.2 °C 1016.1 hPa ENE 1.6 km/h   58 % 0.0 mm 650.0 W/m2 CLR
11:16 30.7 °C 20.7 °C 1016.5 hPa NE 1.9 km/h 1.9 km/h 55 % 0.0 mm 654.0 W/m2 CLR
11:21 31.1 °C 21.0 °C 1016.5 hPa Calm     55 % 0.0 mm 666.0 W/m2 CLR
11:26 31.4 °C 20.9 °C 1016.5 hPa NNE 7.4 km/h   54 % 0.0 mm 679.0 W/m2 CLR
11:31 31.5 °C 20.8 °C 1016.8 hPa Calm     53 % 0.0 mm 691.0 W/m2 CLR
11:36 31.6 °C 20.9 °C 1016.8 hPa Calm     53 % 0.0 mm 698.0 W/m2 CLR
11:41 31.6 °C 20.9 °C 1016.8 hPa Calm   0.2 km/h 53 % 0.0 mm 712.0 W/m2 CLR
11:46 32.1 °C 21.0 °C 1016.8 hPa Calm     52 % 0.0 mm 722.0 W/m2 CLR
11:51 32.5 °C 20.7 °C 1017.2 hPa ENE 3.7 km/h 3.7 km/h 50 % 0.0 mm 737.0 W/m2 CLR
11:56 32.6 °C 20.8 °C 1017.5 hPa NNW 11.1 km/h 11.1 km/h 50 % 0.0 mm 747.0 W/m2 CLR
12:01 32.6 °C 20.1 °C 1017.5 hPa WSW 16.7 km/h 16.7 km/h 48 % 0.0 mm 766.0 W/m2 CLR
12:06 32.7 °C 18.9 °C 1017.5 hPa WNW 20.4 km/h 20.4 km/h 44 % 0.0 mm 775.0 W/m2 CLR
12:11 32.6 °C 20.8 °C 1017.5 hPa North 16.7 km/h 16.7 km/h 50 % 0.0 mm 796.0 W/m2 CLR
12:16 32.6 °C 20.1 °C 1017.5 hPa NNW 13.0 km/h 13.0 km/h 48 % 0.0 mm 780.0 W/m2 CLR
12:21 32.7 °C 19.9 °C 1017.5 hPa NW 18.5 km/h 18.5 km/h 47 % 0.0 mm 830.0 W/m2 CLR
12:26 32.9 °C 18.7 °C 1017.5 hPa North 14.8 km/h 14.8 km/h 43 % 0.0 mm 842.0 W/m2 CLR
12:31 33.3 °C 18.2 °C 1017.5 hPa WNW 18.5 km/h 18.5 km/h 41 % 0.0 mm 847.0 W/m2 CLR
12:36 33.3 °C 18.6 °C 1017.5 hPa NNW 20.4 km/h 20.4 km/h 42 % 0.0 mm 842.0 W/m2 CLR
12:41 33.2 °C 18.9 °C 1017.8 hPa NNW 13.0 km/h 13.0 km/h 43 % 0.0 mm 817.0 W/m2 CLR
12:46 33.4 °C 18.4 °C 1017.5 hPa NNW 19.3 km/h 19.3 km/h 41 % 0.0 mm 788.0 W/m2 CLR
12:51 33.6 °C 18.2 °C 1017.8 hPa WSW 18.5 km/h 18.5 km/h 40 % 0.0 mm 858.0 W/m2 CLR
12:56 33.5 °C 16.4 °C 1017.8 hPa NW 24.1 km/h 24.1 km/h 36 % 0.0 mm 900.0 W/m2 CLR
13:01 33.7 °C 16.5 °C 1017.8 hPa NW 18.5 km/h 18.5 km/h 36 % 0.0 mm 805.0 W/m2 CLR
13:06 33.8 °C 16.2 °C 1017.5 hPa West 22.2 km/h 22.2 km/h 35 % 0.0 mm 735.0 W/m2 CLR
13:11 33.6 °C 16.5 °C 1017.5 hPa WNW 25.7 km/h 25.7 km/h 36 % 0.0 mm 663.0 W/m2 CLR
13:16 33.1 °C 15.6 °C 1017.5 hPa NW 29.6 km/h 29.6 km/h 35 % 0.0 mm 485.0 W/m2 CLR
13:21 32.9 °C 14.5 °C 1017.5 hPa NNW 16.7 km/h 16.7 km/h 33 % 0.0 mm 387.0 W/m2 CLR
13:26 32.7 °C 14.8 °C 1017.5 hPa NW 29.6 km/h 29.6 km/h 34 % 0.0 mm 485.0 W/m2 CLR
13:31 32.8 °C 15.3 °C 1017.5 hPa NW 17.7 km/h 17.7 km/h 35 % 0.0 mm 476.0 W/m2 CLR
13:36 33.0 °C 14.6 °C 1017.2 hPa WNW 22.2 km/h 22.2 km/h 33 % 0.0 mm 462.0 W/m2 CLR
13:41 33.1 °C 12.7 °C 1017.2 hPa NW 27.8 km/h 27.8 km/h 29 % 0.0 mm 471.0 W/m2 CLR
13:46 33.2 °C 12.8 °C 1017.2 hPa NNW 22.5 km/h 22.5 km/h 29 % 0.0 mm 480.0 W/m2 CLR
13:51 33.0 °C 12.1 °C 1017.2 hPa NNW 29.6 km/h 29.6 km/h 28 % 0.0 mm 425.0 W/m2 CLR
13:56 33.0 °C 12.6 °C 1017.2 hPa NW 13.0 km/h 13.0 km/h 29 % 0.0 mm 417.0 W/m2 CLR
14:01 32.8 °C 12.4 °C 1016.8 hPa NNE 13.0 km/h 13.0 km/h 29 % 0.0 mm 388.0 W/m2 CLR
14:06 32.8 °C 12.4 °C 1016.8 hPa NNE 14.8 km/h 14.8 km/h 29 % 0.0 mm 385.0 W/m2 CLR
14:11 32.8 °C 12.4 °C 1017.2 hPa NNW 9.7 km/h 9.7 km/h 29 % 0.0 mm 450.0 W/m2 CLR
14:16 33.0 °C 12.6 °C 1017.2 hPa Calm     29 % 0.0 mm 418.0 W/m2 CLR
14:21 33.1 °C 12.7 °C 1017.2 hPa North 18.5 km/h 18.5 km/h 29 % 0.0 mm 439.0 W/m2 CLR
14:26 32.9 °C 12.5 °C 1016.8 hPa NNW 8.0 km/h 8.8 km/h 29 % 0.0 mm 360.0 W/m2 CLR
14:32 32.7 °C 12.9 °C 1017.2 hPa NNW 7.4 km/h 7.4 km/h 30 % 0.0 mm 348.0 W/m2 CLR
14:37 32.8 °C 12.9 °C 1017.2 hPa NNW 5.6 km/h 5.6 km/h 30 % 0.0 mm 336.0 W/m2 CLR
14:42 32.7 °C 12.9 °C 1017.2 hPa NW 9.3 km/h 9.3 km/h 30 % 0.0 mm 332.0 W/m2 CLR
14:47 32.5 °C 13.2 °C 1017.2 hPa NNW 14.8 km/h 14.8 km/h 31 % 0.0 mm 330.0 W/m2 CLR
14:52 32.3 °C 13.5 °C 1017.2 hPa NW 13.0 km/h 13.0 km/h 32 % 0.0 mm 369.0 W/m2 CLR
14:57 32.3 °C 13.9 °C 1016.8 hPa WNW 7.4 km/h 7.4 km/h 33 % 0.0 mm 657.0 W/m2 CLR
15:02 32.6 °C 13.7 °C 1016.8 hPa WNW 13.0 km/h 13.0 km/h 32 % 0.0 mm 731.0 W/m2 CLR
15:07 32.9 °C 14.1 °C 1016.8 hPa WNW 18.5 km/h 18.5 km/h 32 % 0.0 mm 763.0 W/m2 CLR
15:12 33.0 °C 13.6 °C 1016.8 hPa WNW 11.1 km/h 11.1 km/h 31 % 0.0 mm 696.0 W/m2 CLR
15:17 33.0 °C 13.6 °C 1016.8 hPa Calm     31 % 0.0 mm 775.0 W/m2 CLR
15:22 33.3 °C 13.8 °C 1016.8 hPa North 12.9 km/h 12.9 km/h 31 % 0.0 mm 965.0 W/m2 CLR
15:27 33.5 °C 13.6 °C 1016.8 hPa NNE 11.1 km/h 11.1 km/h 30 % 0.0 mm 979.0 W/m2 CLR
15:32 33.7 °C 13.7 °C 1016.8 hPa NNE 16.1 km/h 16.1 km/h 30 % 0.0 mm 872.0 W/m2 CLR
15:37 33.7 °C 13.2 °C 1016.8 hPa Calm     29 % 0.0 mm 585.0 W/m2 CLR
15:42 33.7 °C 13.2 °C 1016.8 hPa Calm     29 % 0.0 mm 285.0 W/m2 CLR
15:47 33.6 °C 13.6 °C 1016.8 hPa ENE 8.0 km/h 8.0 km/h 30 % 0.0 mm 264.0 W/m2 CLR
15:52 33.4 °C 13.5 °C 1016.8 hPa NE 5.6 km/h 5.6 km/h 30 % 0.0 mm 236.0 W/m2 CLR
15:57 33.3 °C 13.4 °C 1016.8 hPa Calm     30 % 0.0 mm 193.0 W/m2 CLR
16:02 33.3 °C 13.8 °C 1016.5 hPa Calm     31 % 0.0 mm 158.0 W/m2 CLR
16:07 33.1 °C 13.7 °C 1016.5 hPa NE 5.6 km/h 5.6 km/h 31 % 0.0 mm 155.0 W/m2 CLR
16:12 33.0 °C 13.6 °C 1016.5 hPa NE 7.4 km/h 7.4 km/h 31 % 0.0 mm 165.0 W/m2 CLR
16:17 32.9 °C 13.5 °C 1016.5 hPa Calm     31 % 0.0 mm 162.0 W/m2 CLR
16:22 32.8 °C 13.5 °C 1016.5 hPa Calm     31 % 0.0 mm 146.0 W/m2 CLR
16:27 32.8 °C 13.9 °C 1016.5 hPa NE 5.6 km/h 5.6 km/h 32 % 0.0 mm 120.0 W/m2 CLR
16:32 32.7 °C 13.9 °C 1016.5 hPa Calm     32 % 0.0 mm 86.0 W/m2 CLR
16:37 32.7 °C 13.8 °C 1016.5 hPa Calm     32 % 0.0 mm 60.0 W/m2 FEW
16:42 32.6 °C 13.2 °C 1016.5 hPa Calm     31 % 0.0 mm 46.0 W/m2 SCT
16:47 32.4 °C 13.6 °C 1016.5 hPa Calm     32 % 0.0 mm 33.0 W/m2 SCT
16:52 32.3 °C 13.6 °C 1016.5 hPa Calm     32 % 0.0 mm 33.0 W/m2 BKN
16:57 32.3 °C 13.5 °C 1016.1 hPa Calm     32 % 0.0 mm 35.0 W/m2 BKN
17:02 32.2 °C 13.8 °C 1016.1 hPa Calm     33 % 0.0 mm 46.0 W/m2 BKN
17:07 32.0 °C 13.7 °C 1015.8 hPa Calm     33 % 0.0 mm 67.0 W/m2 SCT
17:12 31.9 °C 14.1 °C 1015.5 hPa NNE 5.6 km/h 5.6 km/h 34 % 0.0 mm 111.0 W/m2 FEW
17:17 31.9 °C 14.1 °C 1015.5 hPa ENE 9.3 km/h 9.3 km/h 34 % 0.0 mm 183.0 W/m2 CLR
17:22 32.0 °C 14.6 °C 1015.5 hPa ENE 5.6 km/h 5.6 km/h 35 % 0.0 mm 230.0 W/m2 CLR
17:27 32.2 °C 16.9 °C 1015.5 hPa East 17.7 km/h 17.7 km/h 40 % 0.0 mm 274.0 W/m2 CLR
17:32 32.1 °C 18.6 °C 1015.5 hPa ESE 22.2 km/h 22.2 km/h 45 % 0.0 mm 404.0 W/m2 CLR
17:37 31.9 °C 18.8 °C 1015.1 hPa ESE 22.2 km/h 22.2 km/h 46 % 0.0 mm 497.0 W/m2 CLR
17:42 31.8 °C 19.1 °C 1015.1 hPa ESE 20.4 km/h 20.4 km/h 47 % 0.0 mm 415.0 W/m2 CLR
17:47 31.7 °C 18.7 °C 1015.1 hPa ESE 22.2 km/h 22.2 km/h 46 % 0.0 mm 369.0 W/m2 CLR
17:52 31.6 °C 18.9 °C 1014.8 hPa East 18.5 km/h 18.5 km/h 47 % 0.0 mm 380.0 W/m2 CLR
17:57 31.6 °C 18.9 °C 1014.8 hPa ESE 14.8 km/h 14.8 km/h 47 % 0.0 mm 329.0 W/m2 CLR
18:02 31.7 °C 19.0 °C 1014.8 hPa ESE 11.1 km/h 11.1 km/h 47 % 0.0 mm 258.0 W/m2 CLR
18:07 31.6 °C 18.9 °C 1014.4 hPa ESE 16.7 km/h 16.7 km/h 47 % 0.0 mm 292.0 W/m2 CLR
18:12 31.4 °C 18.4 °C 1014.4 hPa ESE 18.5 km/h 18.5 km/h 46 % 0.0 mm 206.0 W/m2 CLR
18:17 31.4 °C 18.7 °C 1014.4 hPa SE 9.3 km/h 9.3 km/h 47 % 0.0 mm 220.0 W/m2 CLR
18:22 31.4 °C 18.7 °C 1014.4 hPa Calm     47 % 0.0 mm 230.0 W/m2 CLR
18:28 31.5 °C 18.8 °C 1014.4 hPa SE 5.6 km/h 5.6 km/h 47 % 0.0 mm 214.0 W/m2 CLR
18:33 31.4 °C 18.8 °C 1014.4 hPa East 6.4 km/h 7.4 km/h 47 % 0.0 mm 190.0 W/m2 CLR
18:38 31.3 °C 19.0 °C 1014.4 hPa ESE 8.0 km/h 8.5 km/h 48 % 0.0 mm 225.0 W/m2 CLR
18:43 31.2 °C 18.9 °C 1014.1 hPa East 1.9 km/h   48 % 0.0 mm 330.0 W/m2 CLR
18:48 31.2 °C 19.2 °C 1014.1 hPa Calm     49 % 0.0 mm 350.0 W/m2 CLR
18:53 31.4 °C 19.1 °C 1014.1 hPa Calm     48 % 0.0 mm 318.0 W/m2 CLR
18:58 31.4 °C 18.8 °C 1014.1 hPa Calm     47 % 0.0 mm 315.0 W/m2 CLR
19:03 31.5 °C 18.8 °C 1014.1 hPa Calm     47 % 0.0 mm 294.0 W/m2 CLR
19:08 31.6 °C 18.6 °C 1014.1 hPa Calm     46 % 0.0 mm 276.0 W/m2 CLR
19:13 31.7 °C 18.6 °C 1013.8 hPa Calm     46 % 0.0 mm 265.0 W/m2 CLR
19:18 31.7 °C 18.3 °C 1013.8 hPa Calm     45 % 0.0 mm 248.0 W/m2 CLR
19:23 31.8 °C 18.1 °C 1013.8 hPa Calm     44 % 0.0 mm 234.0 W/m2 CLR
19:28 31.8 °C 17.7 °C 1013.8 hPa SE 1.6 km/h   43 % 0.0 mm 214.0 W/m2 CLR
19:33 31.9 °C 17.4 °C 1013.8 hPa SE 9.3 km/h 9.3 km/h 42 % 0.0 mm 202.0 W/m2 CLR
19:38 31.9 °C 17.4 °C 1013.8 hPa SE 9.3 km/h 9.3 km/h 42 % 0.0 mm 188.0 W/m2 CLR
19:43 32.1 °C 17.2 °C 1013.8 hPa SE 11.1 km/h 11.1 km/h 41 % 0.0 mm 171.0 W/m2 CLR
19:48 32.1 °C 17.2 °C 1013.8 hPa SE 8.0 km/h 8.0 km/h 41 % 0.0 mm 155.0 W/m2 CLR
19:53 32.2 °C 16.9 °C 1013.8 hPa ESE 7.4 km/h 7.4 km/h 40 % 0.0 mm 139.0 W/m2 CLR
19:58 32.3 °C 16.6 °C 1013.8 hPa SE 7.4 km/h 7.4 km/h 39 % 0.0 mm 127.0 W/m2 CLR
20:03 32.3 °C 16.6 °C 1013.8 hPa SE 11.1 km/h 11.1 km/h 39 % 0.0 mm 111.0 W/m2 CLR
20:08 32.3 °C 17.0 °C 1013.8 hPa SE 5.6 km/h 5.6 km/h 40 % 0.0 mm 100.0 W/m2 CLR
20:13 32.4 °C 17.1 °C 1014.1 hPa ESE 1.9 km/h 1.9 km/h 40 % 0.0 mm 88.0 W/m2 CLR
20:18 32.2 °C 17.6 °C 1014.1 hPa ESE 5.6 km/h 5.6 km/h 42 % 0.0 mm 77.0 W/m2 FEW
20:23 31.9 °C 17.4 °C 1014.1 hPa ESE 7.4 km/h 7.4 km/h 42 % 0.0 mm 63.0 W/m2 SCT
20:28 31.8 °C 17.3 °C 1014.1 hPa Calm     42 % 0.0 mm 54.0 W/m2 SCT
20:33 31.7 °C 17.2 °C 1014.1 hPa Calm     42 % 0.0 mm 44.0 W/m2 BKN
20:38 31.5 °C 16.7 °C 1014.1 hPa SE 13.0 km/h 13.0 km/h 41 % 0.0 mm 35.0 W/m2 BKN
20:43 31.3 °C 16.4 °C 1014.1 hPa SE 13.0 km/h 13.0 km/h 41 % 0.0 mm 25.0 W/m2 BKN
20:48 31.1 °C 16.7 °C 1014.1 hPa SE 7.4 km/h 7.4 km/h 42 % 0.0 mm 19.0 W/m2 BKN
20:53 30.9 °C 16.2 °C 1014.4 hPa Calm     41 % 0.0 mm 14.0 W/m2 BKN
20:58 31.1 °C 16.3 °C 1014.4 hPa Calm     41 % 0.0 mm 11.0 W/m2 BKN
21:03 31.1 °C 16.3 °C 1014.4 hPa Calm     41 % 0.0 mm 7.0 W/m2 BKN
21:08 30.9 °C 16.2 °C 1014.4 hPa Calm     41 % 0.0 mm 5.0 W/m2 OVC
21:13 30.9 °C 16.1 °C 1014.4 hPa Calm     41 % 0.0 mm 0.0 W/m2 OVC
21:18 30.8 °C 15.7 °C 1014.8 hPa Calm     40 % 0.0 mm 0.0 W/m2 OVC
21:23 30.8 °C 15.6 °C 1014.8 hPa Calm     40 % 0.0 mm 0.0 W/m2 OVC
21:28 30.7 °C 15.9 °C 1014.8 hPa Calm     41 % 0.0 mm 0.0 W/m2 CLR
21:33 30.4 °C 15.7 °C 1014.8 hPa SE 14.8 km/h 14.8 km/h 41 % 0.0 mm 0.0 W/m2 CLR
21:38 30.3 °C 15.6 °C 1015.1 hPa SSE 14.8 km/h 14.8 km/h 41 % 0.0 mm 0.0 W/m2 CLR
21:43 30.3 °C 15.9 °C 1015.1 hPa South 8.0 km/h 8.0 km/h 42 % 0.0 mm 0.0 W/m2 CLR
21:48 30.1 °C 15.8 °C 1015.1 hPa South 9.3 km/h 9.3 km/h 42 % 0.0 mm 0.0 W/m2 CLR
21:53 30.0 °C 16.1 °C 1015.1 hPa Calm     43 % 0.0 mm 0.0 W/m2 CLR
21:58 29.9 °C 15.9 °C 1015.1 hPa Calm     43 % 0.0 mm 0.0 W/m2 CLR
22:03 29.7 °C 16.2 °C 1015.5 hPa SSE 9.7 km/h 9.7 km/h 44 % 0.0 mm 0.0 W/m2 CLR
22:08 29.7 °C 16.2 °C 1015.5 hPa SSE 11.3 km/h 11.3 km/h 44 % 0.0 mm 0.0 W/m2 CLR
22:13 29.7 °C 16.5 °C 1015.5 hPa SSE 14.5 km/h 14.5 km/h 45 % 0.0 mm 0.0 W/m2 CLR
22:18 29.6 °C 16.4 °C 1015.5 hPa SSE 9.3 km/h 9.3 km/h 45 % 0.0 mm 0.0 W/m2 CLR
22:23 29.4 °C 16.6 °C 1015.5 hPa Calm     46 % 0.0 mm 0.0 W/m2 CLR
22:28 29.2 °C 16.7 °C 1015.8 hPa SSE 8.0 km/h 8.0 km/h 47 % 0.0 mm 0.0 W/m2 CLR
22:33 29.1 °C 16.9 °C 1015.8 hPa SSE 13.0 km/h 13.0 km/h 48 % 0.0 mm 0.0 W/m2 CLR
22:38 28.9 °C 16.8 °C 1015.8 hPa Calm     48 % 0.0 mm 0.0 W/m2 CLR
22:43 28.8 °C 16.7 °C 1015.8 hPa Calm     48 % 0.0 mm 0.0 W/m2 CLR
22:48 28.8 °C 17.0 °C 1015.8 hPa Calm     49 % 0.0 mm 0.0 W/m2 CLR
22:53 28.7 °C 16.9 °C 1015.8 hPa Calm     49 % 0.0 mm 0.0 W/m2 CLR
22:58 28.6 °C 16.8 °C 1015.8 hPa Calm     49 % 0.0 mm 0.0 W/m2 CLR
23:03 28.5 °C 16.7 °C 1015.8 hPa Calm     49 % 0.0 mm 0.0 W/m2 CLR
23:08 28.4 °C 16.7 °C 1015.8 hPa Calm     49 % 0.0 mm 0.0 W/m2 CLR
23:13 28.4 °C 16.7 °C 1015.8 hPa Calm     49 % 0.0 mm 0.0 W/m2 CLR
23:18 28.3 °C 16.6 °C 1015.8 hPa Calm     49 % 0.0 mm 0.0 W/m2 CLR
23:23 28.2 °C 16.4 °C 1015.8 hPa Calm     49 % 0.0 mm 0.0 W/m2 CLR
23:28 28.0 °C 16.3 °C 1015.8 hPa Calm     49 % 0.0 mm 0.0 W/m2 CLR
23:33 27.9 °C 16.2 °C 1015.8 hPa Calm     49 % 0.0 mm 0.0 W/m2 CLR
23:38 27.9 °C 16.5 °C 1015.8 hPa Calm     50 % 0.0 mm 0.0 W/m2 CLR
23:43 27.7 °C 16.3 °C 1016.1 hPa Calm     50 % 0.0 mm 0.0 W/m2 CLR
23:48 27.5 °C 16.4 °C 1015.8 hPa Calm     51 % 0.0 mm 0.0 W/m2 CLR
23:49 27.5 °C 16.4 °C 1015.8 hPa Calm     51 % 0.0 mm 0.0 W/m2 CLR
23:54 27.3 °C 16.3 °C 1016.1 hPa Calm     51 % 0.0 mm 0.0 W/m2 CLR
23:59 27.0 °C 16.3 °C 1015.8 hPa Calm     52 % 0.0 mm 0.0 W/m2 CLR
Lo Temps de Massalio
Compliments of Weather Underground - 1.25 mb